createdAt,value
2022-10-02T00:02:16.530Z,88.30
2022-10-02T00:04:48.915Z,88.51
2022-10-02T00:07:19.130Z,88.21
2022-10-02T00:09:51.190Z,88.36
2022-10-02T00:12:22.551Z,88.17
2022-10-02T00:14:52.857Z,88.26
2022-10-02T00:17:23.779Z,88.72
2022-10-02T00:19:53.455Z,88.85
2022-10-02T00:22:47.319Z,88.55
2022-10-02T00:25:23.651Z,88.57
2022-10-02T00:28:05.735Z,87.96
2022-10-02T00:30:41.279Z,88.10
2022-10-02T00:33:16.284Z,88.00
2022-10-02T00:35:52.320Z,87.66
2022-10-02T00:38:38.220Z,87.71
2022-10-02T00:41:30.856Z,87.95
2022-10-02T00:44:14.825Z,87.74
2022-10-02T00:46:48.835Z,87.92
2022-10-02T00:49:30.140Z,87.37
2022-10-02T00:52:08.499Z,87.50
2022-10-02T00:54:56.862Z,87.55
2022-10-02T00:57:41.727Z,87.31
2022-10-02T01:00:11.253Z,86.97
2022-10-02T01:02:53.982Z,86.99
2022-10-02T01:05:20.880Z,86.99
2022-10-02T01:07:50.913Z,87.00
2022-10-02T01:10:17.729Z,86.82
2022-10-02T01:12:45.663Z,86.88
2022-10-02T01:15:13.248Z,86.82
2022-10-02T01:17:40.101Z,86.74
2022-10-02T01:20:12.457Z,86.65
2022-10-02T01:22:44.302Z,86.50
2022-10-02T01:25:12.445Z,86.61
2022-10-02T01:27:39.526Z,86.44
2022-10-02T01:30:08.603Z,86.50
2022-10-02T01:32:39.736Z,86.23
2022-10-02T01:35:07.346Z,86.12
2022-10-02T01:37:39.418Z,86.27
2022-10-02T01:40:09.401Z,86.26
2022-10-02T01:42:38.450Z,86.04
2022-10-02T01:45:07.269Z,86.04
2022-10-02T01:47:40.542Z,86.13
2022-10-02T01:50:16.393Z,85.85
2022-10-02T01:52:49.656Z,85.72
2022-10-02T01:55:33.192Z,85.92
2022-10-02T01:58:19.177Z,86.09
2022-10-02T02:00:57.180Z,86.06
2022-10-02T02:03:32.241Z,86.43
2022-10-02T02:06:05.625Z,85.84
2022-10-02T02:08:36.047Z,86.19
2022-10-02T02:11:11.064Z,85.93
2022-10-02T02:13:45.136Z,86.02
2022-10-02T02:16:19.641Z,85.75
2022-10-02T02:18:51.320Z,85.77
2022-10-02T02:21:22.985Z,86.19
2022-10-02T02:23:50.704Z,86.28
2022-10-02T02:26:19.616Z,86.38
2022-10-02T02:28:50.920Z,86.47
2022-10-02T02:31:22.305Z,86.86
2022-10-02T02:33:52.830Z,86.75
2022-10-02T02:36:23.860Z,86.73
2022-10-02T02:38:54.678Z,86.70
2022-10-02T02:41:26.685Z,86.48
2022-10-02T02:43:59.447Z,86.35
2022-10-02T02:46:33.893Z,86.46
2022-10-02T02:49:08.291Z,86.44
2022-10-02T02:51:38.981Z,86.34
2022-10-02T02:54:12.292Z,86.41
2022-10-02T02:56:41.870Z,86.94
2022-10-02T02:59:11.352Z,86.63
2022-10-02T03:01:38.162Z,86.67
2022-10-02T03:04:04.703Z,86.27
2022-10-02T03:06:35.359Z,86.54
2022-10-02T03:09:02.430Z,86.44
2022-10-02T03:11:41.465Z,86.63
2022-10-02T03:14:28.315Z,86.80
2022-10-02T03:17:06.461Z,86.81
2022-10-02T03:19:43.497Z,86.69
2022-10-02T03:22:15.378Z,86.45
2022-10-02T03:24:49.526Z,86.54
2022-10-02T03:27:23.302Z,86.67
2022-10-02T03:29:56.833Z,86.85
2022-10-02T03:32:24.028Z,86.82
2022-10-02T03:34:50.541Z,86.92
2022-10-02T03:37:17.961Z,87.47
2022-10-02T03:39:44.929Z,87.44
2022-10-02T03:42:13.322Z,87.31
2022-10-02T03:44:39.900Z,87.16
2022-10-02T03:47:07.680Z,87.73
2022-10-02T03:49:34.179Z,87.38
2022-10-02T03:52:01.078Z,87.48
2022-10-02T03:54:33.581Z,87.75
2022-10-02T03:57:04.804Z,87.45
2022-10-02T03:59:44.514Z,87.45
2022-10-02T04:02:23.156Z,87.64
2022-10-02T04:04:54.721Z,87.65
2022-10-02T04:07:27.976Z,87.57
2022-10-02T04:10:16.266Z,87.62
2022-10-02T04:12:47.404Z,87.70
2022-10-02T04:15:21.076Z,88.13
2022-10-02T04:17:58.808Z,88.15
2022-10-02T04:20:31.031Z,88.17
2022-10-02T04:23:03.878Z,88.20
2022-10-02T04:25:36.842Z,88.25
2022-10-02T04:28:07.825Z,88.19
2022-10-02T04:30:34.420Z,88.27
2022-10-02T04:33:11.392Z,88.37
2022-10-02T04:35:44.757Z,88.21
2022-10-02T04:38:35.201Z,88.35
2022-10-02T04:41:21.138Z,88.44
2022-10-02T04:44:01.973Z,88.22
2022-10-02T04:46:54.365Z,88.48
2022-10-02T04:49:37.729Z,88.48
2022-10-02T04:52:33.888Z,88.32
2022-10-02T04:55:24.409Z,88.52
2022-10-02T04:58:36.920Z,88.37
2022-10-02T05:01:12.939Z,88.23
2022-10-02T05:04:03.174Z,88.22
2022-10-02T05:06:45.152Z,87.98
2022-10-02T05:09:20.806Z,88.14
2022-10-02T05:12:01.345Z,87.92
2022-10-02T05:14:43.351Z,87.57
2022-10-02T05:17:27.680Z,87.18
2022-10-02T05:20:06.386Z,87.55
2022-10-02T05:23:00.889Z,87.02
2022-10-02T05:25:43.958Z,87.09
2022-10-02T05:28:26.363Z,87.11
2022-10-02T05:31:01.532Z,87.45
2022-10-02T05:33:50.893Z,87.63
2022-10-02T05:36:39.710Z,87.94
2022-10-02T05:39:13.622Z,88.27
2022-10-02T05:41:46.692Z,88.47
2022-10-02T05:44:18.096Z,88.62
2022-10-02T05:46:50.331Z,88.85
2022-10-02T05:49:20.428Z,89.28
2022-10-02T05:51:53.645Z,89.64
2022-10-02T05:54:30.074Z,89.61
2022-10-02T05:57:01.592Z,89.71
2022-10-02T05:59:37.913Z,89.94
2022-10-02T06:02:13.960Z,89.47
2022-10-02T06:04:47.666Z,89.31
2022-10-02T06:07:17.525Z,89.17
2022-10-02T06:09:49.534Z,89.29
2022-10-02T06:12:22.528Z,89.66
2022-10-02T06:14:56.260Z,89.34
2022-10-02T06:17:25.785Z,89.45
2022-10-02T06:20:01.004Z,89.44
2022-10-02T06:22:34.785Z,89.47
2022-10-02T06:25:10.429Z,89.10
2022-10-02T06:27:43.937Z,89.03
2022-10-02T06:30:12.409Z,88.98
2022-10-02T06:32:45.677Z,88.87
2022-10-02T06:35:13.900Z,88.83
2022-10-02T06:37:53.433Z,88.83
2022-10-02T06:40:45.977Z,88.62
2022-10-02T06:43:24.253Z,88.61
2022-10-02T06:45:57.282Z,88.79
2022-10-02T06:48:31.222Z,88.75
2022-10-02T06:51:05.912Z,88.65
2022-10-02T06:53:52.759Z,88.13
2022-10-02T06:56:36.435Z,88.66
2022-10-02T06:59:19.000Z,88.07
2022-10-02T07:01:57.639Z,88.12
2022-10-02T07:04:40.266Z,87.92
2022-10-02T07:07:21.057Z,88.14
2022-10-02T07:10:11.390Z,88.35
2022-10-02T07:12:54.745Z,88.32
2022-10-02T07:15:42.824Z,88.44
2022-10-02T07:18:19.721Z,88.41
2022-10-02T07:20:54.221Z,88.50
2022-10-02T07:23:47.406Z,88.93
2022-10-02T07:26:35.838Z,88.49
2022-10-02T07:29:20.640Z,88.59
2022-10-02T07:32:01.856Z,88.92
2022-10-02T07:34:41.458Z,88.38
2022-10-02T07:37:16.685Z,88.01
2022-10-02T07:40:00.352Z,88.32
2022-10-02T07:42:43.785Z,88.36
2022-10-02T07:45:39.220Z,88.42
2022-10-02T07:48:30.884Z,88.17
2022-10-02T07:51:05.447Z,87.75
2022-10-02T07:53:39.958Z,86.70
2022-10-02T07:56:09.007Z,86.92
2022-10-02T07:58:43.701Z,86.51
2022-10-02T08:01:17.918Z,86.71
2022-10-02T08:03:48.712Z,86.31
2022-10-02T08:06:17.213Z,85.94
2022-10-02T08:08:49.258Z,86.15
2022-10-02T08:11:19.897Z,86.43
2022-10-02T08:13:51.064Z,86.06
2022-10-02T08:16:20.434Z,85.65
2022-10-02T08:18:50.649Z,86.57
2022-10-02T08:21:20.213Z,84.72
2022-10-02T08:23:52.786Z,84.73
2022-10-02T08:26:30.674Z,82.94
2022-10-02T08:29:03.844Z,82.18
2022-10-02T08:31:32.029Z,82.65
2022-10-02T08:34:01.818Z,82.28
2022-10-02T08:36:46.189Z,81.56
2022-10-02T08:39:39.112Z,81.55
2022-10-02T08:42:32.939Z,81.24
2022-10-02T08:45:46.106Z,80.67
2022-10-02T08:48:52.633Z,80.44
2022-10-02T08:51:55.793Z,79.20
2022-10-02T08:55:10.066Z,80.64
2022-10-02T08:57:59.082Z,80.10
2022-10-02T09:00:36.516Z,80.25
2022-10-02T09:03:45.566Z,78.91
2022-10-02T09:06:47.680Z,78.44
2022-10-02T09:10:04.712Z,77.99
2022-10-02T09:13:06.782Z,77.86
2022-10-02T09:15:45.226Z,77.92
2022-10-02T09:18:18.506Z,77.41
2022-10-02T09:21:11.545Z,77.23
2022-10-02T09:24:13.943Z,76.42
2022-10-02T09:27:24.885Z,75.90
2022-10-02T09:30:19.412Z,76.20
2022-10-02T09:33:28.695Z,75.48
2022-10-02T09:36:21.925Z,75.33
2022-10-02T09:39:30.203Z,73.62
2022-10-02T09:42:42.963Z,72.61
2022-10-02T09:45:43.105Z,72.92
2022-10-02T09:48:34.675Z,72.42
2022-10-02T09:51:36.591Z,73.69
2022-10-02T09:54:35.490Z,74.24
2022-10-02T09:57:38.997Z,74.08
2022-10-02T10:00:19.557Z,74.73
2022-10-02T10:03:24.334Z,75.16
2022-10-02T10:06:12.872Z,76.08
2022-10-02T10:09:08.842Z,77.17
2022-10-02T10:11:57.864Z,77.43
2022-10-02T10:14:53.519Z,76.70
2022-10-02T10:17:57.222Z,77.13
2022-10-02T10:20:54.391Z,76.35
2022-10-02T10:23:44.548Z,75.39
2022-10-02T10:26:39.742Z,75.24
2022-10-02T10:29:29.959Z,73.85
2022-10-02T10:32:50.441Z,73.36
2022-10-02T10:35:45.926Z,74.14
2022-10-02T10:38:38.015Z,74.36
2022-10-02T10:41:35.982Z,74.86
2022-10-02T10:44:38.806Z,75.57
2022-10-02T10:47:39.099Z,76.36
2022-10-02T10:50:31.941Z,75.85
2022-10-02T10:53:13.331Z,76.46
2022-10-02T10:56:18.400Z,76.36
2022-10-02T10:59:04.438Z,76.41
2022-10-02T11:01:39.863Z,75.76
2022-10-02T11:04:30.186Z,75.87
2022-10-02T11:07:24.778Z,74.22
2022-10-02T11:10:18.954Z,74.53
2022-10-02T11:13:02.929Z,74.75
2022-10-02T11:15:47.783Z,74.94
2022-10-02T11:18:56.177Z,75.32
2022-10-02T11:21:38.729Z,75.72
2022-10-02T11:24:45.850Z,77.05
2022-10-02T11:27:35.308Z,76.63
2022-10-02T11:30:19.771Z,76.34
2022-10-02T11:33:29.713Z,76.07
2022-10-02T11:36:14.675Z,75.73
2022-10-02T11:39:13.804Z,76.07
2022-10-02T11:41:59.289Z,75.13
2022-10-02T11:44:44.424Z,73.45
2022-10-02T11:47:46.863Z,73.67
2022-10-02T11:50:47.241Z,72.11
2022-10-02T11:53:36.377Z,70.42
2022-10-02T11:56:29.822Z,70.42
2022-10-02T11:59:11.479Z,70.49
2022-10-02T12:01:41.772Z,69.60
2022-10-02T12:04:29.358Z,69.02
2022-10-02T12:07:10.570Z,69.14
2022-10-02T12:09:57.753Z,66.95
2022-10-02T12:12:44.152Z,67.94
2022-10-02T12:15:21.087Z,67.33
2022-10-02T12:18:01.023Z,68.63
2022-10-02T12:20:42.951Z,67.94
2022-10-02T12:23:24.435Z,68.85
2022-10-02T12:25:57.982Z,67.33
2022-10-02T12:28:38.380Z,67.80
2022-10-02T12:31:14.568Z,67.87
2022-10-02T12:33:56.568Z,68.26
2022-10-02T12:36:49.718Z,65.68
2022-10-02T12:39:31.851Z,65.15
2022-10-02T12:42:09.064Z,64.28
2022-10-02T12:45:00.079Z,66.44
2022-10-02T12:47:46.091Z,66.35
2022-10-02T12:50:23.091Z,66.67
2022-10-02T12:53:14.824Z,68.05
2022-10-02T12:56:13.823Z,65.30
2022-10-02T12:58:52.151Z,64.96
2022-10-02T13:02:09.362Z,65.52
2022-10-02T13:04:59.576Z,65.50
2022-10-02T13:07:54.909Z,65.63
2022-10-02T13:10:24.815Z,64.59
2022-10-02T13:13:05.081Z,64.37
2022-10-02T13:15:41.404Z,61.96
2022-10-02T13:18:46.747Z,61.99
2022-10-02T13:21:23.609Z,63.41
2022-10-02T13:24:03.034Z,62.90
2022-10-02T13:26:35.497Z,63.80
2022-10-02T13:29:34.025Z,63.07
2022-10-02T13:32:23.562Z,62.63
2022-10-02T13:35:06.645Z,63.61
2022-10-02T13:37:46.446Z,64.18
2022-10-02T13:40:28.581Z,63.23
2022-10-02T13:43:20.336Z,63.41
2022-10-02T13:45:49.635Z,63.67
2022-10-02T13:48:27.849Z,63.04
2022-10-02T13:51:03.931Z,63.86
2022-10-02T13:54:00.291Z,63.73
2022-10-02T13:56:40.455Z,63.14
2022-10-02T13:59:18.519Z,62.66
2022-10-02T14:02:02.929Z,62.17
2022-10-02T14:04:40.901Z,61.39
2022-10-02T14:07:20.359Z,61.70
2022-10-02T14:10:02.662Z,61.98
2022-10-02T14:12:40.682Z,61.57
2022-10-02T14:15:24.623Z,61.57
2022-10-02T14:18:15.535Z,61.30
2022-10-02T14:20:52.890Z,61.28
2022-10-02T14:23:48.930Z,63.23
2022-10-02T14:26:26.639Z,61.67
2022-10-02T14:29:08.989Z,61.58
2022-10-02T14:32:05.227Z,61.35
2022-10-02T14:35:03.489Z,61.66
2022-10-02T14:37:57.590Z,61.83
2022-10-02T14:40:26.886Z,62.00
2022-10-02T14:43:13.185Z,61.80
2022-10-02T14:46:02.299Z,62.42
2022-10-02T14:48:44.100Z,63.16
2022-10-02T14:51:25.650Z,62.48
2022-10-02T14:54:04.935Z,63.32
2022-10-02T14:57:05.275Z,63.28
2022-10-02T15:00:02.283Z,63.55
2022-10-02T15:03:00.991Z,63.76
2022-10-02T15:05:45.164Z,63.71
2022-10-02T15:08:15.944Z,64.59
2022-10-02T15:10:45.994Z,64.60
2022-10-02T15:13:24.228Z,64.63
2022-10-02T15:15:55.921Z,64.65
2022-10-02T15:18:32.431Z,65.04
2022-10-02T15:21:05.409Z,65.21
2022-10-02T15:23:43.867Z,65.81
2022-10-02T15:26:26.273Z,65.88
2022-10-02T15:29:02.119Z,66.33
2022-10-02T15:31:39.269Z,66.77
2022-10-02T15:34:19.101Z,67.15
2022-10-02T15:37:02.403Z,67.10
2022-10-02T15:39:47.873Z,67.34
2022-10-02T15:42:19.369Z,67.80
2022-10-02T15:45:10.255Z,67.76
2022-10-02T15:47:58.105Z,68.26
2022-10-02T15:50:34.002Z,68.14
2022-10-02T15:53:22.181Z,68.77
2022-10-02T15:55:53.150Z,68.86
2022-10-02T15:58:31.218Z,69.00
2022-10-02T16:01:18.628Z,69.13
2022-10-02T16:03:50.841Z,69.29
2022-10-02T16:06:29.988Z,69.57
2022-10-02T16:09:17.624Z,69.80
2022-10-02T16:12:02.821Z,70.22
2022-10-02T16:14:39.481Z,70.21
2022-10-02T16:17:18.753Z,70.37
2022-10-02T16:20:02.611Z,70.55
2022-10-02T16:22:43.669Z,70.79
2022-10-02T16:25:27.751Z,71.03
2022-10-02T16:28:11.431Z,71.43
2022-10-02T16:30:57.653Z,71.52
2022-10-02T16:33:32.499Z,71.77
2022-10-02T16:36:24.524Z,72.01
2022-10-02T16:38:56.203Z,71.76
2022-10-02T16:41:34.973Z,72.19
2022-10-02T16:44:15.930Z,72.51
2022-10-02T16:46:46.277Z,72.51
2022-10-02T16:49:24.528Z,72.77
2022-10-02T16:52:00.219Z,72.67
2022-10-02T16:54:32.595Z,72.79
2022-10-02T16:57:04.086Z,73.04
2022-10-02T16:59:39.757Z,72.81
2022-10-02T17:02:18.648Z,73.21
2022-10-02T17:04:57.440Z,73.53
2022-10-02T17:07:34.977Z,73.82
2022-10-02T17:10:18.215Z,73.90
2022-10-02T17:12:50.414Z,74.18
2022-10-02T17:15:22.909Z,74.69
2022-10-02T17:18:17.218Z,74.79
2022-10-02T17:20:48.112Z,75.23
2022-10-02T17:23:24.830Z,74.98
2022-10-02T17:25:59.961Z,75.14
2022-10-02T17:28:32.137Z,75.43
2022-10-02T17:31:23.071Z,75.33
2022-10-02T17:33:55.433Z,75.48
2022-10-02T17:36:32.019Z,75.99
2022-10-02T17:39:15.127Z,75.90
2022-10-02T17:41:53.157Z,76.12
2022-10-02T17:44:27.889Z,76.07
2022-10-02T17:47:30.844Z,76.74
2022-10-02T17:50:20.216Z,77.10
2022-10-02T17:52:56.998Z,77.53
2022-10-02T17:55:56.116Z,77.94
2022-10-02T17:58:30.574Z,78.11
2022-10-02T18:01:05.664Z,78.15
2022-10-02T18:03:46.866Z,78.07
2022-10-02T18:06:20.869Z,78.38
2022-10-02T18:09:15.395Z,78.43
2022-10-02T18:12:09.774Z,78.47
2022-10-02T18:14:57.101Z,78.00
2022-10-02T18:17:31.935Z,77.93
2022-10-02T18:20:05.317Z,78.51
2022-10-02T18:22:54.589Z,78.46
2022-10-02T18:25:49.427Z,78.36
2022-10-02T18:28:35.283Z,78.22
2022-10-02T18:31:12.335Z,78.30
2022-10-02T18:34:02.041Z,78.42
2022-10-02T18:36:45.111Z,78.31
2022-10-02T18:39:18.148Z,78.58
2022-10-02T18:41:55.674Z,78.52
2022-10-02T18:44:50.234Z,78.45
2022-10-02T18:47:30.875Z,78.58
2022-10-02T18:50:07.064Z,78.99
2022-10-02T18:52:47.436Z,78.69
2022-10-02T18:55:36.404Z,78.72
2022-10-02T18:58:10.277Z,78.86
2022-10-02T19:01:04.321Z,78.91
2022-10-02T19:03:36.384Z,78.86
2022-10-02T19:06:11.246Z,79.15
2022-10-02T19:09:01.033Z,79.31
2022-10-02T19:11:29.325Z,79.86
2022-10-02T19:13:55.845Z,80.15
2022-10-02T19:16:26.163Z,79.99
2022-10-02T19:19:06.966Z,79.91
2022-10-02T19:21:35.334Z,79.95
2022-10-02T19:24:06.376Z,80.12
2022-10-02T19:26:35.362Z,80.24
2022-10-02T19:29:07.508Z,80.21
2022-10-02T19:31:38.152Z,79.89
2022-10-02T19:34:12.758Z,80.16
2022-10-02T19:36:45.018Z,80.32
2022-10-02T19:39:19.277Z,80.36
2022-10-02T19:41:46.566Z,80.73
2022-10-02T19:44:20.173Z,80.62
2022-10-02T19:46:51.345Z,80.78
2022-10-02T19:49:22.542Z,80.71
2022-10-02T19:51:49.267Z,80.52
2022-10-02T19:54:19.609Z,80.79
2022-10-02T19:56:47.189Z,80.80
2022-10-02T19:59:18.113Z,80.67
2022-10-02T20:01:49.663Z,80.93
2022-10-02T20:04:19.406Z,80.83
2022-10-02T20:06:49.080Z,80.84
2022-10-02T20:09:20.018Z,80.74
2022-10-02T20:11:50.225Z,80.52
2022-10-02T20:14:21.491Z,80.55
2022-10-02T20:16:49.568Z,80.58
2022-10-02T20:19:19.755Z,80.52
2022-10-02T20:21:50.128Z,80.58
2022-10-02T20:24:24.431Z,80.87
2022-10-02T20:26:53.861Z,80.49
2022-10-02T20:29:25.355Z,80.61
2022-10-02T20:32:01.152Z,80.74
2022-10-02T20:34:33.823Z,80.83
2022-10-02T20:37:05.308Z,80.71
2022-10-02T20:39:36.650Z,80.75
2022-10-02T20:42:08.172Z,80.89
2022-10-02T20:44:35.807Z,80.69
2022-10-02T20:47:34.670Z,80.53
2022-10-02T20:50:21.685Z,80.49
2022-10-02T20:53:16.862Z,80.86
2022-10-02T20:55:50.713Z,80.50
2022-10-02T20:58:45.485Z,81.10
2022-10-02T21:01:17.065Z,80.99
2022-10-02T21:04:02.413Z,80.95
2022-10-02T21:07:06.823Z,80.91
2022-10-02T21:10:21.497Z,81.07
2022-10-02T21:13:29.686Z,81.07
2022-10-02T21:16:19.121Z,80.88
2022-10-02T21:19:26.312Z,81.14
2022-10-02T21:22:28.027Z,81.49
2022-10-02T21:25:35.313Z,81.65
2022-10-02T21:28:43.041Z,81.69
2022-10-02T21:31:25.291Z,81.63
2022-10-02T21:34:09.741Z,81.81
2022-10-02T21:36:46.157Z,81.68
2022-10-02T21:39:50.070Z,81.71
2022-10-02T21:42:55.751Z,81.82
2022-10-02T21:45:56.360Z,82.05
2022-10-02T21:49:04.439Z,82.02
2022-10-02T21:52:02.798Z,82.19
2022-10-02T21:55:05.161Z,82.11
2022-10-02T21:58:01.946Z,82.59
2022-10-02T22:00:28.969Z,82.66
2022-10-02T22:03:27.698Z,82.59
2022-10-02T22:06:17.424Z,83.06
2022-10-02T22:08:59.907Z,82.88
2022-10-02T22:11:38.278Z,82.86
2022-10-02T22:14:10.532Z,83.05
2022-10-02T22:16:47.573Z,83.04
2022-10-02T22:19:28.921Z,83.21
2022-10-02T22:22:10.988Z,83.51
2022-10-02T22:24:54.826Z,83.42
2022-10-02T22:27:34.181Z,83.08
2022-10-02T22:30:02.581Z,83.73
2022-10-02T22:32:57.293Z,83.73
2022-10-02T22:35:33.828Z,83.53
2022-10-02T22:38:10.944Z,83.55
2022-10-02T22:40:46.992Z,83.41
2022-10-02T22:43:24.585Z,83.58
2022-10-02T22:45:57.604Z,83.62
2022-10-02T22:48:33.414Z,84.15
2022-10-02T22:51:09.781Z,83.71
2022-10-02T22:53:41.489Z,83.83
2022-10-02T22:56:21.238Z,84.13
2022-10-02T22:58:55.497Z,83.88
2022-10-02T23:01:30.285Z,84.15
2022-10-02T23:04:00.132Z,83.66
2022-10-02T23:06:31.562Z,84.13
2022-10-02T23:09:07.573Z,83.90
2022-10-02T23:11:41.229Z,84.24
2022-10-02T23:14:19.149Z,84.04
2022-10-02T23:16:49.868Z,84.17
2022-10-02T23:19:22.441Z,84.13
2022-10-02T23:21:52.643Z,84.18
2022-10-02T23:24:28.144Z,84.04
2022-10-02T23:27:05.993Z,84.25
2022-10-02T23:29:43.088Z,83.96
2022-10-02T23:32:20.856Z,84.53
2022-10-02T23:34:56.610Z,84.24
2022-10-02T23:37:26.133Z,84.38
2022-10-02T23:40:02.712Z,84.55
2022-10-02T23:42:38.322Z,84.59
2022-10-02T23:45:15.521Z,84.76
2022-10-02T23:47:56.500Z,85.09
2022-10-02T23:50:26.737Z,85.01
2022-10-02T23:53:12.694Z,84.94
2022-10-02T23:56:03.430Z,84.91
2022-10-02T23:58:56.492Z,84.84
